sensor_id;sensor_type;location;lat;lon;timestamp;temperature;humidity
67192;HTU21D;54120;53.504;49.426;2023-06-22T00:00:55;12.12;67.82
67192;HTU21D;54120;53.504;49.426;2023-06-22T00:03:23;12.11;68.10
67192;HTU21D;54120;53.504;49.426;2023-06-22T00:05:50;12.11;68.30
67192;HTU21D;54120;53.504;49.426;2023-06-22T00:08:16;12.05;68.70
67192;HTU21D;54120;53.504;49.426;2023-06-22T00:10:42;12.04;68.92
67192;HTU21D;54120;53.504;49.426;2023-06-22T00:13:09;12.02;69.18
67192;HTU21D;54120;53.504;49.426;2023-06-22T00:15:36;12.03;69.47
67192;HTU21D;54120;53.504;49.426;2023-06-22T00:18:05;11.99;69.64
67192;HTU21D;54120;53.504;49.426;2023-06-22T00:20:32;11.97;69.95
67192;HTU21D;54120;53.504;49.426;2023-06-22T00:22:59;11.98;70.14
67192;HTU21D;54120;53.504;49.426;2023-06-22T00:25:25;11.97;70.27
67192;HTU21D;54120;53.504;49.426;2023-06-22T00:27:52;11.99;70.37
67192;HTU21D;54120;53.504;49.426;2023-06-22T00:30:18;11.98;70.44
67192;HTU21D;54120;53.504;49.426;2023-06-22T00:32:45;12.02;70.60
67192;HTU21D;54120;53.504;49.426;2023-06-22T00:35:11;12.02;70.72
67192;HTU21D;54120;53.504;49.426;2023-06-22T00:37:39;12.00;70.88
67192;HTU21D;54120;53.504;49.426;2023-06-22T00:40:08;12.03;70.90
67192;HTU21D;54120;53.504;49.426;2023-06-22T00:42:40;12.07;70.89
67192;HTU21D;54120;53.504;49.426;2023-06-22T00:45:07;12.07;70.99
67192;HTU21D;54120;53.504;49.426;2023-06-22T00:47:36;12.10;71.05
67192;HTU21D;54120;53.504;49.426;2023-06-22T00:50:06;12.14;71.01
67192;HTU21D;54120;53.504;49.426;2023-06-22T00:52:32;12.16;70.97
67192;HTU21D;54120;53.504;49.426;2023-06-22T00:55:02;12.19;70.93
67192;HTU21D;54120;53.504;49.426;2023-06-22T00:57:28;12.23;70.87
67192;HTU21D;54120;53.504;49.426;2023-06-22T00:59:54;12.27;70.74
67192;HTU21D;54120;53.504;49.426;2023-06-22T01:02:21;12.31;70.46
67192;HTU21D;54120;53.504;49.426;2023-06-22T01:04:47;12.31;70.55
67192;HTU21D;54120;53.504;49.426;2023-06-22T01:07:31;12.35;70.45
67192;HTU21D;54120;53.504;49.426;2023-06-22T01:12:33;12.47;70.01
67192;HTU21D;54120;53.504;49.426;2023-06-22T01:15:13;12.51;70.00
67192;HTU21D;54120;53.504;49.426;2023-06-22T01:17:43;12.55;69.78
67192;HTU21D;54120;53.504;49.426;2023-06-22T01:20:10;12.62;69.34
67192;HTU21D;54120;53.504;49.426;2023-06-22T01:25:36;12.74;68.98
67192;HTU21D;54120;53.504;49.426;2023-06-22T01:30:45;12.86;68.56
67192;HTU21D;54120;53.504;49.426;2023-06-22T01:33:13;12.91;68.06
67192;HTU21D;54120;53.504;49.426;2023-06-22T01:35:40;12.99;67.94
67192;HTU21D;54120;53.504;49.426;2023-06-22T01:38:07;13.09;67.84
67192;HTU21D;54120;53.504;49.426;2023-06-22T01:40:34;13.20;67.23
67192;HTU21D;54120;53.504;49.426;2023-06-22T01:43:03;13.34;66.71
67192;HTU21D;54120;53.504;49.426;2023-06-22T01:45:30;13.48;66.30
67192;HTU21D;54120;53.504;49.426;2023-06-22T01:47:56;13.65;65.91
67192;HTU21D;54120;53.504;49.426;2023-06-22T01:50:23;13.68;65.28
67192;HTU21D;54120;53.504;49.426;2023-06-22T01:52:49;13.70;65.38
67192;HTU21D;54120;53.504;49.426;2023-06-22T01:55:15;13.90;64.75
67192;HTU21D;54120;53.504;49.426;2023-06-22T01:57:41;14.10;63.80
67192;HTU21D;54120;53.504;49.426;2023-06-22T02:00:12;14.14;63.49
67192;HTU21D;54120;53.504;49.426;2023-06-22T02:05:17;14.20;63.34
67192;HTU21D;54120;53.504;49.426;2023-06-22T02:08:17;14.17;62.94
67192;HTU21D;54120;53.504;49.426;2023-06-22T02:10:48;14.05;63.02
67192;HTU21D;54120;53.504;49.426;2023-06-22T02:13:15;13.95;63.01
67192;HTU21D;54120;53.504;49.426;2023-06-22T02:15:42;13.79;63.45
67192;HTU21D;54120;53.504;49.426;2023-06-22T02:18:08;13.76;63.63
67192;HTU21D;54120;53.504;49.426;2023-06-22T02:20:39;13.81;63.47
67192;HTU21D;54120;53.504;49.426;2023-06-22T02:23:06;13.92;63.22
67192;HTU21D;54120;53.504;49.426;2023-06-22T02:25:32;14.06;62.70
67192;HTU21D;54120;53.504;49.426;2023-06-22T02:28:02;13.86;63.55
67192;HTU21D;54120;53.504;49.426;2023-06-22T02:30:28;13.83;63.85
67192;HTU21D;54120;53.504;49.426;2023-06-22T02:32:54;13.66;64.27
67192;HTU21D;54120;53.504;49.426;2023-06-22T02:35:30;13.83;63.89
67192;HTU21D;54120;53.504;49.426;2023-06-22T02:37:58;14.00;62.66
67192;HTU21D;54120;53.504;49.426;2023-06-22T02:40:26;14.18;62.72
67192;HTU21D;54120;53.504;49.426;2023-06-22T02:42:52;14.48;61.92
67192;HTU21D;54120;53.504;49.426;2023-06-22T02:45:18;14.49;61.38
67192;HTU21D;54120;53.504;49.426;2023-06-22T02:47:45;14.69;60.15
67192;HTU21D;54120;53.504;49.426;2023-06-22T02:50:11;14.80;60.24
67192;HTU21D;54120;53.504;49.426;2023-06-22T02:52:37;14.98;59.80
67192;HTU21D;54120;53.504;49.426;2023-06-22T02:55:05;15.18;59.41
67192;HTU21D;54120;53.504;49.426;2023-06-22T02:57:32;15.44;58.29
67192;HTU21D;54120;53.504;49.426;2023-06-22T02:59:59;15.75;57.46
67192;HTU21D;54120;53.504;49.426;2023-06-22T03:02:25;16.21;55.95
67192;HTU21D;54120;53.504;49.426;2023-06-22T03:04:54;16.65;54.33
67192;HTU21D;54120;53.504;49.426;2023-06-22T03:07:20;16.65;54.84
67192;HTU21D;54120;53.504;49.426;2023-06-22T03:09:46;16.77;54.03
67192;HTU21D;54120;53.504;49.426;2023-06-22T03:12:12;16.89;54.13
67192;HTU21D;54120;53.504;49.426;2023-06-22T03:14:38;17.47;52.15
67192;HTU21D;54120;53.504;49.426;2023-06-22T03:17:05;17.52;51.07
67192;HTU21D;54120;53.504;49.426;2023-06-22T03:19:31;16.93;52.45
67192;HTU21D;54120;53.504;49.426;2023-06-22T03:21:59;16.52;54.45
67192;HTU21D;54120;53.504;49.426;2023-06-22T03:24:25;16.54;54.00
67192;HTU21D;54120;53.504;49.426;2023-06-22T03:26:54;16.35;54.15
67192;HTU21D;54120;53.504;49.426;2023-06-22T03:29:20;16.60;53.96
67192;HTU21D;54120;53.504;49.426;2023-06-22T03:31:46;17.18;52.40
67192;HTU21D;54120;53.504;49.426;2023-06-22T03:34:12;17.41;51.70
67192;HTU21D;54120;53.504;49.426;2023-06-22T03:36:38;17.80;50.56
67192;HTU21D;54120;53.504;49.426;2023-06-22T03:39:04;17.84;50.88
67192;HTU21D;54120;53.504;49.426;2023-06-22T03:41:30;17.70;51.17
67192;HTU21D;54120;53.504;49.426;2023-06-22T03:43:56;17.15;52.84
67192;HTU21D;54120;53.504;49.426;2023-06-22T03:46:22;17.40;51.79
67192;HTU21D;54120;53.504;49.426;2023-06-22T03:48:49;17.50;50.82
67192;HTU21D;54120;53.504;49.426;2023-06-22T03:51:15;17.35;51.54
67192;HTU21D;54120;53.504;49.426;2023-06-22T03:53:41;17.67;50.59
67192;HTU21D;54120;53.504;49.426;2023-06-22T03:56:07;17.88;50.03
67192;HTU21D;54120;53.504;49.426;2023-06-22T03:58:33;18.48;48.47
67192;HTU21D;54120;53.504;49.426;2023-06-22T04:00:59;18.79;47.69
67192;HTU21D;54120;53.504;49.426;2023-06-22T04:03:25;19.53;45.22
67192;HTU21D;54120;53.504;49.426;2023-06-22T04:05:51;19.67;44.22
67192;HTU21D;54120;53.504;49.426;2023-06-22T04:08:17;21.15;41.42
67192;HTU21D;54120;53.504;49.426;2023-06-22T04:10:43;23.38;36.31
67192;HTU21D;54120;53.504;49.426;2023-06-22T04:13:10;24.45;33.05
67192;HTU21D;54120;53.504;49.426;2023-06-22T04:15:36;25.98;30.63
67192;HTU21D;54120;53.504;49.426;2023-06-22T04:18:03;26.91;28.39
67192;HTU21D;54120;53.504;49.426;2023-06-22T04:20:31;24.93;31.76
67192;HTU21D;54120;53.504;49.426;2023-06-22T04:22:57;21.90;38.69
67192;HTU21D;54120;53.504;49.426;2023-06-22T04:25:23;21.01;39.85
67192;HTU21D;54120;53.504;49.426;2023-06-22T04:27:49;19.88;41.90
67192;HTU21D;54120;53.504;49.426;2023-06-22T04:30:16;20.21;42.26
67192;HTU21D;54120;53.504;49.426;2023-06-22T04:32:43;20.43;40.39
67192;HTU21D;54120;53.504;49.426;2023-06-22T04:35:10;20.32;40.79
67192;HTU21D;54120;53.504;49.426;2023-06-22T04:37:36;21.04;39.07
67192;HTU21D;54120;53.504;49.426;2023-06-22T04:40:02;20.96;39.24
67192;HTU21D;54120;53.504;49.426;2023-06-22T04:42:31;20.75;39.15
67192;HTU21D;54120;53.504;49.426;2023-06-22T04:44:57;20.55;40.06
67192;HTU21D;54120;53.504;49.426;2023-06-22T04:47:23;20.37;40.42
67192;HTU21D;54120;53.504;49.426;2023-06-22T04:49:49;20.33;41.04
67192;HTU21D;54120;53.504;49.426;2023-06-22T04:52:15;20.42;39.10
67192;HTU21D;54120;53.504;49.426;2023-06-22T04:54:43;20.44;39.57
67192;HTU21D;54120;53.504;49.426;2023-06-22T04:57:21;21.29;37.33
67192;HTU21D;54120;53.504;49.426;2023-06-22T04:59:56;21.73;35.92
67192;HTU21D;54120;53.504;49.426;2023-06-22T05:02:22;21.66;36.52
67192;HTU21D;54120;53.504;49.426;2023-06-22T05:04:49;22.13;36.14
67192;HTU21D;54120;53.504;49.426;2023-06-22T05:07:16;21.97;36.47
67192;HTU21D;54120;53.504;49.426;2023-06-22T05:09:42;22.52;35.17
67192;HTU21D;54120;53.504;49.426;2023-06-22T05:12:09;22.29;35.85
67192;HTU21D;54120;53.504;49.426;2023-06-22T05:14:35;21.57;36.61
67192;HTU21D;54120;53.504;49.426;2023-06-22T05:17:02;20.88;35.94
67192;HTU21D;54120;53.504;49.426;2023-06-22T05:19:29;20.35;36.43
67192;HTU21D;54120;53.504;49.426;2023-06-22T05:21:58;20.11;39.36
67192;HTU21D;54120;53.504;49.426;2023-06-22T05:24:24;20.10;40.23
67192;HTU21D;54120;53.504;49.426;2023-06-22T05:26:50;20.44;38.99
67192;HTU21D;54120;53.504;49.426;2023-06-22T05:29:16;20.42;37.56
67192;HTU21D;54120;53.504;49.426;2023-06-22T05:31:42;19.95;37.92
67192;HTU21D;54120;53.504;49.426;2023-06-22T05:34:08;20.17;35.31
67192;HTU21D;54120;53.504;49.426;2023-06-22T05:36:34;21.40;34.36
67192;HTU21D;54120;53.504;49.426;2023-06-22T05:39:11;22.98;30.01
67192;HTU21D;54120;53.504;49.426;2023-06-22T05:41:38;23.22;30.21
67192;HTU21D;54120;53.504;49.426;2023-06-22T05:44:04;23.02;31.54
67192;HTU21D;54120;53.504;49.426;2023-06-22T05:46:30;23.25;31.28
67192;HTU21D;54120;53.504;49.426;2023-06-22T05:48:56;24.14;29.97
67192;HTU21D;54120;53.504;49.426;2023-06-22T05:51:22;25.77;27.24
67192;HTU21D;54120;53.504;49.426;2023-06-22T05:53:48;24.49;29.13
67192;HTU21D;54120;53.504;49.426;2023-06-22T05:56:16;23.82;31.13
67192;HTU21D;54120;53.504;49.426;2023-06-22T05:58:43;22.90;31.91
67192;HTU21D;54120;53.504;49.426;2023-06-22T06:01:09;22.33;33.02
67192;HTU21D;54120;53.504;49.426;2023-06-22T06:03:35;22.73;32.06
67192;HTU21D;54120;53.504;49.426;2023-06-22T06:06:09;24.95;28.38
67192;HTU21D;54120;53.504;49.426;2023-06-22T06:08:37;25.84;26.03
67192;HTU21D;54120;53.504;49.426;2023-06-22T06:11:04;23.44;28.98
67192;HTU21D;54120;53.504;49.426;2023-06-22T06:13:30;22.82;29.81
67192;HTU21D;54120;53.504;49.426;2023-06-22T06:15:56;23.82;29.27
67192;HTU21D;54120;53.504;49.426;2023-06-22T06:18:23;24.84;26.90
67192;HTU21D;54120;53.504;49.426;2023-06-22T06:20:49;26.17;23.70
67192;HTU21D;54120;53.504;49.426;2023-06-22T06:23:15;25.68;24.05
67192;HTU21D;54120;53.504;49.426;2023-06-22T06:25:41;26.10;23.14
67192;HTU21D;54120;53.504;49.426;2023-06-22T06:28:07;24.31;26.57
67192;HTU21D;54120;53.504;49.426;2023-06-22T06:30:33;22.05;31.56
67192;HTU21D;54120;53.504;49.426;2023-06-22T06:32:59;24.26;27.87
67192;HTU21D;54120;53.504;49.426;2023-06-22T06:35:25;27.15;22.53
67192;HTU21D;54120;53.504;49.426;2023-06-22T06:37:51;28.37;20.08
67192;HTU21D;54120;53.504;49.426;2023-06-22T06:40:18;28.80;20.67
67192;HTU21D;54120;53.504;49.426;2023-06-22T06:42:48;30.11;18.50
67192;HTU21D;54120;53.504;49.426;2023-06-22T06:45:18;29.65;18.09
67192;HTU21D;54120;53.504;49.426;2023-06-22T06:47:44;25.76;24.72
67192;HTU21D;54120;53.504;49.426;2023-06-22T06:50:11;23.62;29.51
67192;HTU21D;54120;53.504;49.426;2023-06-22T06:52:38;21.74;34.13
67192;HTU21D;54120;53.504;49.426;2023-06-22T06:55:04;21.02;36.63
67192;HTU21D;54120;53.504;49.426;2023-06-22T06:57:33;20.69;36.63
67192;HTU21D;54120;53.504;49.426;2023-06-22T06:59:59;19.73;38.53
67192;HTU21D;54120;53.504;49.426;2023-06-22T07:02:26;19.15;40.28
67192;HTU21D;54120;53.504;49.426;2023-06-22T07:04:55;19.15;40.01
67192;HTU21D;54120;53.504;49.426;2023-06-22T07:07:21;20.27;36.50
67192;HTU21D;54120;53.504;49.426;2023-06-22T07:09:47;22.06;32.02
67192;HTU21D;54120;53.504;49.426;2023-06-22T07:12:13;20.56;34.31
67192;HTU21D;54120;53.504;49.426;2023-06-22T07:14:39;19.67;37.78
67192;HTU21D;54120;53.504;49.426;2023-06-22T07:17:05;18.94;40.59
67192;HTU21D;54120;53.504;49.426;2023-06-22T07:19:32;18.27;43.43
67192;HTU21D;54120;53.504;49.426;2023-06-22T07:21:59;17.92;44.30
67192;HTU21D;54120;53.504;49.426;2023-06-22T07:24:25;17.65;45.88
67192;HTU21D;54120;53.504;49.426;2023-06-22T07:26:51;17.50;46.09
67192;HTU21D;54120;53.504;49.426;2023-06-22T07:29:18;17.16;48.09
67192;HTU21D;54120;53.504;49.426;2023-06-22T07:31:47;17.28;49.21
67192;HTU21D;54120;53.504;49.426;2023-06-22T07:34:13;17.62;47.12
67192;HTU21D;54120;53.504;49.426;2023-06-22T07:36:39;17.44;46.89
67192;HTU21D;54120;53.504;49.426;2023-06-22T07:39:05;17.64;46.31
67192;HTU21D;54120;53.504;49.426;2023-06-22T07:41:32;18.19;45.12
67192;HTU21D;54120;53.504;49.426;2023-06-22T07:43:58;18.74;44.02
67192;HTU21D;54120;53.504;49.426;2023-06-22T07:46:24;18.98;42.68
67192;HTU21D;54120;53.504;49.426;2023-06-22T07:48:50;18.84;42.97
67192;HTU21D;54120;53.504;49.426;2023-06-22T07:51:17;19.09;42.38
67192;HTU21D;54120;53.504;49.426;2023-06-22T07:53:44;19.66;40.37
67192;HTU21D;54120;53.504;49.426;2023-06-22T07:56:10;20.05;39.05
67192;HTU21D;54120;53.504;49.426;2023-06-22T07:58:36;20.25;39.52
67192;HTU21D;54120;53.504;49.426;2023-06-22T08:01:02;20.56;38.94
67192;HTU21D;54120;53.504;49.426;2023-06-22T08:03:29;20.68;36.69
67192;HTU21D;54120;53.504;49.426;2023-06-22T08:05:55;20.44;37.46
67192;HTU21D;54120;53.504;49.426;2023-06-22T08:08:21;20.93;36.59
67192;HTU21D;54120;53.504;49.426;2023-06-22T08:10:48;21.02;36.69
67192;HTU21D;54120;53.504;49.426;2023-06-22T08:13:14;21.07;36.30
67192;HTU21D;54120;53.504;49.426;2023-06-22T08:15:40;20.85;34.78
67192;HTU21D;54120;53.504;49.426;2023-06-22T08:18:07;20.22;35.91
67192;HTU21D;54120;53.504;49.426;2023-06-22T08:20:33;20.12;35.23
67192;HTU21D;54120;53.504;49.426;2023-06-22T08:22:59;19.87;33.43
67192;HTU21D;54120;53.504;49.426;2023-06-22T08:25:34;19.62;34.49
67192;HTU21D;54120;53.504;49.426;2023-06-22T08:28:01;19.97;35.00
67192;HTU21D;54120;53.504;49.426;2023-06-22T08:30:28;19.71;35.91
67192;HTU21D;54120;53.504;49.426;2023-06-22T08:32:54;20.28;34.89
67192;HTU21D;54120;53.504;49.426;2023-06-22T08:35:22;20.43;35.53
67192;HTU21D;54120;53.504;49.426;2023-06-22T08:37:48;20.27;35.31
67192;HTU21D;54120;53.504;49.426;2023-06-22T08:40:21;20.61;35.74
67192;HTU21D;54120;53.504;49.426;2023-06-22T08:42:47;20.45;36.14
67192;HTU21D;54120;53.504;49.426;2023-06-22T08:45:13;19.99;37.17
67192;HTU21D;54120;53.504;49.426;2023-06-22T08:47:40;19.37;39.15
67192;HTU21D;54120;53.504;49.426;2023-06-22T08:50:11;19.35;39.66
67192;HTU21D;54120;53.504;49.426;2023-06-22T08:52:38;19.55;37.69
67192;HTU21D;54120;53.504;49.426;2023-06-22T08:55:07;19.39;38.17
67192;HTU21D;54120;53.504;49.426;2023-06-22T08:57:34;19.90;37.11
67192;HTU21D;54120;53.504;49.426;2023-06-22T09:00:05;19.58;34.92
67192;HTU21D;54120;53.504;49.426;2023-06-22T09:02:34;19.57;36.38
67192;HTU21D;54120;53.504;49.426;2023-06-22T09:05:03;19.43;36.34
67192;HTU21D;54120;53.504;49.426;2023-06-22T09:07:29;19.40;37.11
67192;HTU21D;54120;53.504;49.426;2023-06-22T09:09:55;19.77;33.31
67192;HTU21D;54120;53.504;49.426;2023-06-22T09:12:22;19.94;31.01
67192;HTU21D;54120;53.504;49.426;2023-06-22T09:14:51;20.45;30.13
67192;HTU21D;54120;53.504;49.426;2023-06-22T09:17:18;21.27;26.70
67192;HTU21D;54120;53.504;49.426;2023-06-22T09:19:45;20.96;28.08
67192;HTU21D;54120;53.504;49.426;2023-06-22T09:22:11;21.22;28.55
67192;HTU21D;54120;53.504;49.426;2023-06-22T09:24:37;20.92;29.54
67192;HTU21D;54120;53.504;49.426;2023-06-22T09:27:03;21.46;29.58
67192;HTU21D;54120;53.504;49.426;2023-06-22T09:29:29;22.13;28.00
67192;HTU21D;54120;53.504;49.426;2023-06-22T09:31:55;22.19;27.29
67192;HTU21D;54120;53.504;49.426;2023-06-22T09:34:21;21.58;27.42
67192;HTU21D;54120;53.504;49.426;2023-06-22T09:36:47;21.52;26.83
67192;HTU21D;54120;53.504;49.426;2023-06-22T09:39:13;21.64;25.01
67192;HTU21D;54120;53.504;49.426;2023-06-22T09:41:39;21.18;25.35
67192;HTU21D;54120;53.504;49.426;2023-06-22T09:44:05;21.04;27.44
67192;HTU21D;54120;53.504;49.426;2023-06-22T09:46:32;20.88;27.54
67192;HTU21D;54120;53.504;49.426;2023-06-22T09:48:58;20.28;28.72
67192;HTU21D;54120;53.504;49.426;2023-06-22T09:51:24;20.07;29.55
67192;HTU21D;54120;53.504;49.426;2023-06-22T09:53:51;19.99;30.59
67192;HTU21D;54120;53.504;49.426;2023-06-22T09:56:19;20.58;30.60
67192;HTU21D;54120;53.504;49.426;2023-06-22T09:58:46;20.50;30.09
67192;HTU21D;54120;53.504;49.426;2023-06-22T10:01:13;20.70;29.91
67192;HTU21D;54120;53.504;49.426;2023-06-22T10:03:42;20.88;28.90
67192;HTU21D;54120;53.504;49.426;2023-06-22T10:06:08;20.57;28.81
67192;HTU21D;54120;53.504;49.426;2023-06-22T10:08:35;20.19;29.43
67192;HTU21D;54120;53.504;49.426;2023-06-22T10:11:01;19.96;29.78
67192;HTU21D;54120;53.504;49.426;2023-06-22T10:13:27;20.05;29.58
67192;HTU21D;54120;53.504;49.426;2023-06-22T10:15:53;20.55;29.90
67192;HTU21D;54120;53.504;49.426;2023-06-22T10:18:20;21.16;28.83
67192;HTU21D;54120;53.504;49.426;2023-06-22T10:20:50;21.08;28.85
67192;HTU21D;54120;53.504;49.426;2023-06-22T10:23:20;21.19;29.88
67192;HTU21D;54120;53.504;49.426;2023-06-22T10:25:46;20.84;29.75
67192;HTU21D;54120;53.504;49.426;2023-06-22T10:28:12;20.90;29.85
67192;HTU21D;54120;53.504;49.426;2023-06-22T10:30:39;21.15;29.47
67192;HTU21D;54120;53.504;49.426;2023-06-22T10:33:08;20.90;29.75
67192;HTU21D;54120;53.504;49.426;2023-06-22T10:35:34;20.56;31.35
67192;HTU21D;54120;53.504;49.426;2023-06-22T10:38:00;20.85;30.74
67192;HTU21D;54120;53.504;49.426;2023-06-22T10:40:26;21.17;30.14
67192;HTU21D;54120;53.504;49.426;2023-06-22T10:42:52;20.87;31.87
67192;HTU21D;54120;53.504;49.426;2023-06-22T10:45:18;20.18;32.71
67192;HTU21D;54120;53.504;49.426;2023-06-22T10:47:44;19.90;33.18
67192;HTU21D;54120;53.504;49.426;2023-06-22T10:50:10;19.53;35.02
67192;HTU21D;54120;53.504;49.426;2023-06-22T10:52:37;19.58;35.60
67192;HTU21D;54120;53.504;49.426;2023-06-22T10:55:04;19.54;36.67
67192;HTU21D;54120;53.504;49.426;2023-06-22T10:57:30;19.85;36.02
67192;HTU21D;54120;53.504;49.426;2023-06-22T10:59:56;20.29;35.41
67192;HTU21D;54120;53.504;49.426;2023-06-22T11:02:23;20.64;35.46
67192;HTU21D;54120;53.504;49.426;2023-06-22T11:04:50;20.60;34.26
67192;HTU21D;54120;53.504;49.426;2023-06-22T11:07:16;20.62;34.18
67192;HTU21D;54120;53.504;49.426;2023-06-22T11:09:45;20.53;34.05
67192;HTU21D;54120;53.504;49.426;2023-06-22T11:12:11;20.86;34.05
67192;HTU21D;54120;53.504;49.426;2023-06-22T11:14:37;20.93;31.99
67192;HTU21D;54120;53.504;49.426;2023-06-22T11:17:05;20.66;31.26
67192;HTU21D;54120;53.504;49.426;2023-06-22T11:19:31;20.32;33.48
67192;HTU21D;54120;53.504;49.426;2023-06-22T11:21:57;19.95;35.07
67192;HTU21D;54120;53.504;49.426;2023-06-22T11:24:23;19.96;35.27
67192;HTU21D;54120;53.504;49.426;2023-06-22T11:26:49;19.80;35.53
67192;HTU21D;54120;53.504;49.426;2023-06-22T11:29:15;19.95;35.34
67192;HTU21D;54120;53.504;49.426;2023-06-22T11:31:41;20.43;34.81
67192;HTU21D;54120;53.504;49.426;2023-06-22T11:34:09;20.43;34.46
67192;HTU21D;54120;53.504;49.426;2023-06-22T11:36:35;20.74;34.12
67192;HTU21D;54120;53.504;49.426;2023-06-22T11:39:01;20.84;32.96
67192;HTU21D;54120;53.504;49.426;2023-06-22T11:41:27;20.51;32.57
67192;HTU21D;54120;53.504;49.426;2023-06-22T11:43:53;20.15;32.96
67192;HTU21D;54120;53.504;49.426;2023-06-22T11:46:19;19.88;33.83
67192;HTU21D;54120;53.504;49.426;2023-06-22T11:48:46;20.17;33.75
67192;HTU21D;54120;53.504;49.426;2023-06-22T11:51:12;20.10;34.60
67192;HTU21D;54120;53.504;49.426;2023-06-22T11:53:38;20.87;33.15
67192;HTU21D;54120;53.504;49.426;2023-06-22T11:56:04;21.46;31.09
67192;HTU21D;54120;53.504;49.426;2023-06-22T11:58:30;21.55;30.19
67192;HTU21D;54120;53.504;49.426;2023-06-22T12:01:07;20.76;32.56
67192;HTU21D;54120;53.504;49.426;2023-06-22T12:03:33;20.74;33.73
67192;HTU21D;54120;53.504;49.426;2023-06-22T12:05:59;20.91;33.03
67192;HTU21D;54120;53.504;49.426;2023-06-22T12:08:25;20.98;31.64
67192;HTU21D;54120;53.504;49.426;2023-06-22T12:10:51;20.46;33.12
67192;HTU21D;54120;53.504;49.426;2023-06-22T12:13:19;20.07;34.24
67192;HTU21D;54120;53.504;49.426;2023-06-22T12:15:45;19.56;36.40
67192;HTU21D;54120;53.504;49.426;2023-06-22T12:18:12;19.26;36.68
67192;HTU21D;54120;53.504;49.426;2023-06-22T12:20:40;18.89;37.58
67192;HTU21D;54120;53.504;49.426;2023-06-22T12:23:06;18.78;37.61
67192;HTU21D;54120;53.504;49.426;2023-06-22T12:25:32;18.70;39.12
67192;HTU21D;54120;53.504;49.426;2023-06-22T12:27:58;18.78;37.11
67192;HTU21D;54120;53.504;49.426;2023-06-22T12:30:24;18.61;36.82
67192;HTU21D;54120;53.504;49.426;2023-06-22T12:32:50;18.63;37.67
67192;HTU21D;54120;53.504;49.426;2023-06-22T12:35:17;18.57;37.56
67192;HTU21D;54120;53.504;49.426;2023-06-22T12:37:43;18.55;37.58
67192;HTU21D;54120;53.504;49.426;2023-06-22T12:40:10;18.67;36.04
67192;HTU21D;54120;53.504;49.426;2023-06-22T12:42:36;18.67;36.28
67192;HTU21D;54120;53.504;49.426;2023-06-22T12:45:02;19.01;35.21
67192;HTU21D;54120;53.504;49.426;2023-06-22T12:47:28;19.56;35.16
67192;HTU21D;54120;53.504;49.426;2023-06-22T12:49:54;20.25;34.44
67192;HTU21D;54120;53.504;49.426;2023-06-22T12:52:20;20.46;33.59
67192;HTU21D;54120;53.504;49.426;2023-06-22T12:54:46;20.44;33.83
67192;HTU21D;54120;53.504;49.426;2023-06-22T12:57:12;20.49;33.94
67192;HTU21D;54120;53.504;49.426;2023-06-22T12:59:38;20.80;31.82
67192;HTU21D;54120;53.504;49.426;2023-06-22T13:02:05;20.60;31.61
67192;HTU21D;54120;53.504;49.426;2023-06-22T13:04:31;20.37;32.15
67192;HTU21D;54120;53.504;49.426;2023-06-22T13:06:57;19.96;31.19
67192;HTU21D;54120;53.504;49.426;2023-06-22T13:09:23;19.61;31.40
67192;HTU21D;54120;53.504;49.426;2023-06-22T13:11:49;19.33;33.09
67192;HTU21D;54120;53.504;49.426;2023-06-22T13:14:15;19.46;31.80
67192;HTU21D;54120;53.504;49.426;2023-06-22T13:16:42;19.36;31.55
67192;HTU21D;54120;53.504;49.426;2023-06-22T13:19:08;18.95;32.56
67192;HTU21D;54120;53.504;49.426;2023-06-22T13:21:34;18.68;33.05
67192;HTU21D;54120;53.504;49.426;2023-06-22T13:24:00;18.62;33.31
67192;HTU21D;54120;53.504;49.426;2023-06-22T13:26:27;18.83;33.92
67192;HTU21D;54120;53.504;49.426;2023-06-22T13:28:54;18.87;33.22
67192;HTU21D;54120;53.504;49.426;2023-06-22T13:31:20;18.93;33.28
67192;HTU21D;54120;53.504;49.426;2023-06-22T13:33:47;18.88;33.62
67192;HTU21D;54120;53.504;49.426;2023-06-22T13:36:14;18.47;34.25
67192;HTU21D;54120;53.504;49.426;2023-06-22T13:38:41;18.36;35.05
67192;HTU21D;54120;53.504;49.426;2023-06-22T13:41:06;18.27;35.24
67192;HTU21D;54120;53.504;49.426;2023-06-22T13:43:32;18.13;35.03
67192;HTU21D;54120;53.504;49.426;2023-06-22T13:45:58;18.12;36.02
67192;HTU21D;54120;53.504;49.426;2023-06-22T13:48:24;18.33;35.79
67192;HTU21D;54120;53.504;49.426;2023-06-22T13:50:54;18.63;35.49
67192;HTU21D;54120;53.504;49.426;2023-06-22T13:53:20;18.77;34.69
67192;HTU21D;54120;53.504;49.426;2023-06-22T13:55:46;18.82;34.08
67192;HTU21D;54120;53.504;49.426;2023-06-22T13:58:14;19.00;34.40
67192;HTU21D;54120;53.504;49.426;2023-06-22T14:00:40;18.74;35.59
67192;HTU21D;54120;53.504;49.426;2023-06-22T14:03:06;18.74;36.17
67192;HTU21D;54120;53.504;49.426;2023-06-22T14:05:32;18.85;36.33
67192;HTU21D;54120;53.504;49.426;2023-06-22T14:07:58;18.84;36.07
67192;HTU21D;54120;53.504;49.426;2023-06-22T14:10:24;18.83;35.91
67192;HTU21D;54120;53.504;49.426;2023-06-22T14:12:50;18.94;36.15
67192;HTU21D;54120;53.504;49.426;2023-06-22T14:15:17;19.25;35.81
67192;HTU21D;54120;53.504;49.426;2023-06-22T14:17:43;19.18;35.66
67192;HTU21D;54120;53.504;49.426;2023-06-22T14:20:10;18.91;36.97
67192;HTU21D;54120;53.504;49.426;2023-06-22T14:22:36;18.61;37.82
67192;HTU21D;54120;53.504;49.426;2023-06-22T14:25:02;18.58;38.62
67192;HTU21D;54120;53.504;49.426;2023-06-22T14:27:29;18.82;38.51
67192;HTU21D;54120;53.504;49.426;2023-06-22T14:29:55;18.84;37.95
67192;HTU21D;54120;53.504;49.426;2023-06-22T14:32:21;18.87;37.69
67192;HTU21D;54120;53.504;49.426;2023-06-22T14:34:47;18.72;38.13
67192;HTU21D;54120;53.504;49.426;2023-06-22T14:37:15;18.56;38.65
67192;HTU21D;54120;53.504;49.426;2023-06-22T14:39:41;18.58;38.20
67192;HTU21D;54120;53.504;49.426;2023-06-22T14:42:08;18.52;38.59
67192;HTU21D;54120;53.504;49.426;2023-06-22T14:44:34;18.52;39.73
67192;HTU21D;54120;53.504;49.426;2023-06-22T14:47:00;18.47;39.36
67192;HTU21D;54120;53.504;49.426;2023-06-22T14:49:26;18.41;39.23
67192;HTU21D;54120;53.504;49.426;2023-06-22T14:51:52;18.35;39.79
67192;HTU21D;54120;53.504;49.426;2023-06-22T14:54:18;18.30;40.11
67192;HTU21D;54120;53.504;49.426;2023-06-22T14:56:44;18.22;39.98
67192;HTU21D;54120;53.504;49.426;2023-06-22T14:59:11;18.10;39.75
67192;HTU21D;54120;53.504;49.426;2023-06-22T15:01:37;18.02;40.44
67192;HTU21D;54120;53.504;49.426;2023-06-22T15:04:03;17.99;41.20
67192;HTU21D;54120;53.504;49.426;2023-06-22T15:06:29;17.85;41.68
67192;HTU21D;54120;53.504;49.426;2023-06-22T15:08:55;17.76;41.54
67192;HTU21D;54120;53.504;49.426;2023-06-22T15:11:21;17.72;41.98